Time;durP1;ratioP1;P1;durP2;ratioP2;P2;SDS_P1;SDS_P2;PMS_P1;PMS_P2;Temp;Humidity;BMP_temperature;BMP_pressure;BME280_temperature;BME280_humidity;BME280_pressure;Samples;Min_cycle;Max_cycle;Signal;HPM_P1;HPM_P2
2022/05/29 00:00:18;;;;;;;0.70;0.70;;;20.20;1.00;;;;;;5010527;28;20480;-45
2022/05/29 00:02:43;;;;;;;2.58;1.20;;;20.30;1.00;;;;;;5012502;28;20034;-46
2022/05/29 00:05:11;;;;;;;3.22;1.00;;;20.30;1.00;;;;;;5010837;28;20068;-42
2022/05/29 00:07:39;;;;;;;1.45;1.00;;;20.30;1.00;;;;;;5001064;28;20539;-47
2022/05/29 00:10:09;;;;;;;3.30;1.13;;;20.10;1.00;;;;;;5015018;28;20046;-42
2022/05/29 00:12:34;;;;;;;1.15;0.90;;;20.20;1.00;;;;;;5015038;28;20116;-45
2022/05/29 00:15:01;;;;;;;2.75;1.17;;;20.30;1.00;;;;;;5015461;28;20104;-44
2022/05/29 00:17:27;;;;;;;2.63;0.70;;;20.20;1.00;;;;;;5014636;28;20026;-46
2022/05/29 00:19:52;;;;;;;1.58;0.77;;;20.10;1.00;;;;;;5012964;28;20088;-42
2022/05/29 00:22:21;;;;;;;0.90;0.90;;;20.20;1.00;;;;;;5015788;28;20026;-44
2022/05/29 00:24:49;;;;;;;1.17;1.08;;;20.30;1.00;;;;;;5015112;28;20116;-42
2022/05/29 00:27:16;;;;;;;1.52;1.02;;;20.10;1.00;;;;;;5015273;28;20034;-43
2022/05/29 00:29:43;;;;;;;2.55;1.17;;;20.00;1.00;;;;;;5012909;28;20454;-46
2022/05/29 00:32:09;;;;;;;1.92;1.30;;;19.90;1.00;;;;;;5015936;28;20030;-46
2022/05/29 00:34:34;;;;;;;7.93;1.40;;;18.90;1.00;;;;;;5014998;28;20365;-42
2022/05/29 00:37:02;;;;;;;2.42;0.85;;;18.60;1.00;;;;;;5007260;28;20073;-44
2022/05/29 00:39:28;;;;;;;2.50;1.23;;;18.50;99.90;;;;;;5010350;28;20026;-43
2022/05/29 00:41:54;;;;;;;2.80;1.50;;;18.50;16.50;;;;;;5015772;28;20498;-45
2022/05/29 00:44:29;;;;;;;1.52;1.40;;;18.50;3.50;;;;;;5014561;28;20033;-48
2022/05/29 00:47:11;;;;;;;2.38;1.75;;;18.50;12.30;;;;;;4999681;28;20026;-47
2022/05/29 00:49:38;;;;;;;2.83;1.55;;;18.40;12.00;;;;;;5014437;28;20371;-45
2022/05/29 00:52:06;;;;;;;4.68;1.70;;;18.70;1.00;;;;;;5015561;28;20025;-46
2022/05/29 00:54:42;;;;;;;2.13;1.48;;;18.90;1.00;;;;;;5014687;28;20026;-44
2022/05/29 00:57:18;;;;;;;1.67;1.58;;;19.00;1.10;;;;;;5014196;28;20140;-44
2022/05/29 00:59:45;;;;;;;4.13;1.80;;;19.00;1.00;;;;;;5014316;28;20041;-45
2022/05/29 01:02:10;;;;;;;3.47;1.95;;;19.10;1.00;;;;;;5015532;28;20026;-46
2022/05/29 01:04:39;;;;;;;4.50;1.83;;;18.80;1.50;;;;;;5010389;28;20053;-45
2022/05/29 01:07:08;;;;;;;2.88;1.98;;;18.50;99.90;;;;;;5013916;28;20076;-44
2022/05/29 01:09:35;;;;;;;4.25;1.90;;;18.20;99.90;;;;;;5013580;28;20041;-44
2022/05/29 01:12:25;;;;;;;3.38;2.10;;;18.50;55.70;;;;;;5013890;28;20049;-41
2022/05/29 01:15:07;;;;;;;4.00;1.85;;;18.70;22.50;;;;;;5009534;28;20156;-42
2022/05/29 01:18:00;;;;;;;2.13;1.77;;;18.60;15.60;;;;;;5001661;28;20491;-45
2022/05/29 01:20:40;;;;;;;5.63;1.80;;;18.60;11.80;;;;;;5012186;28;20018;-43
2022/05/29 01:23:21;;;;;;;2.47;1.50;;;18.70;9.20;;;;;;5012303;28;20030;-42
2022/05/29 01:26:05;;;;;;;1.80;1.70;;;18.50;12.40;;;;;;5007182;28;20038;-43
2022/05/29 01:28:46;;;;;;;2.03;1.45;;;18.70;7.30;;;;;;5008732;28;20018;-42
2022/05/29 01:31:41;;;;;;;2.80;1.83;;;18.80;8.50;;;;;;5004210;28;20352;-45
2022/05/29 01:34:12;;;;;;;3.50;1.92;;;18.60;9.90;;;;;;5012786;28;20108;-46
2022/05/29 01:37:23;;;;;;;2.95;1.73;;;18.80;7.00;;;;;;5012659;28;20072;-44
2022/05/29 01:39:53;;;;;;;2.10;1.60;;;18.80;10.80;;;;;;5006324;28;20096;-42
2022/05/29 01:42:24;;;;;;;3.60;1.48;;;18.60;6.40;;;;;;5009080;28;20033;-45
2022/05/29 01:44:58;;;;;;;5.75;1.67;;;18.70;7.70;;;;;;5012448;28;20052;-43
2022/05/29 01:47:41;;;;;;;1.67;1.58;;;18.60;7.40;;;;;;5013687;28;20029;-43
2022/05/29 01:50:11;;;;;;;2.20;1.48;;;18.40;9.30;;;;;;5013336;28;20036;-46
2022/05/29 01:53:02;;;;;;;1.50;1.40;;;18.30;10.60;;;;;;5014671;28;20026;-46
2022/05/29 01:55:41;;;;;;;1.95;1.33;;;18.20;10.70;;;;;;4997584;28;20077;-43
2022/05/29 01:58:13;;;;;;;4.18;1.88;;;18.40;9.40;;;;;;5014691;28;20054;-42
2022/05/29 02:00:39;;;;;;;1.77;1.60;;;18.30;8.20;;;;;;5013104;28;20076;-43
2022/05/29 02:03:20;;;;;;;1.73;1.50;;;18.50;6.60;;;;;;5011639;28;20038;-42
2022/05/29 02:05:52;;;;;;;2.10;1.33;;;18.50;6.80;;;;;;5011214;28;20112;-45
2022/05/29 02:08:25;;;;;;;1.98;1.33;;;18.60;6.30;;;;;;5014300;28;20092;-42
2022/05/29 02:11:02;;;;;;;1.45;1.35;;;18.30;6.80;;;;;;4999821;28;20056;-46
2022/05/29 02:13:33;;;;;;;2.72;1.52;;;18.40;5.80;;;;;;5013592;28;20057;-47
2022/05/29 02:16:16;;;;;;;3.08;1.30;;;18.30;5.30;;;;;;5004809;28;20048;-44
2022/05/29 02:19:34;;;;;;;1.30;1.13;;;18.40;5.30;;;;;;5006732;28;20030;-46
2022/05/29 02:22:31;;;;;;;1.25;1.15;;;18.30;5.20;;;;;;4988912;28;20030;-48
2022/05/29 02:25:17;;;;;;;1.30;1.20;;;18.30;4.00;;;;;;4995372;28;20069;-46
2022/05/29 02:27:52;;;;;;;1.38;1.27;;;18.30;3.50;;;;;;5014155;28;20172;-44
2022/05/29 02:30:20;;;;;;;2.03;1.08;;;18.10;3.70;;;;;;5012374;28;20112;-45
2022/05/29 02:32:52;;;;;;;3.65;1.27;;;18.10;3.10;;;;;;5013708;28;20032;-43
2022/05/29 02:35:34;;;;;;;3.75;1.15;;;18.00;3.50;;;;;;5012302;28;20034;-44
2022/05/29 02:38:12;;;;;;;3.22;1.60;;;18.30;2.60;;;;;;5014010;28;20486;-43
2022/05/29 02:41:08;;;;;;;2.78;1.50;;;18.30;2.50;;;;;;5012716;28;20045;-42
2022/05/29 02:44:02;;;;;;;1.55;1.42;;;18.30;3.20;;;;;;5001993;28;20092;-43
2022/05/29 02:46:36;;;;;;;1.63;1.48;;;18.40;2.20;;;;;;5010371;28;20041;-46
2022/05/29 02:49:14;;;;;;;1.73;1.33;;;18.30;2.20;;;;;;5012307;28;20030;-43
2022/05/29 02:51:42;;;;;;;1.95;1.67;;;18.30;1.80;;;;;;5013284;28;20018;-43
2022/05/29 02:54:12;;;;;;;1.20;1.10;;;18.10;1.60;;;;;;5007472;28;20362;-43
2022/05/29 02:56:38;;;;;;;2.40;1.40;;;18.30;1.70;;;;;;5013520;28;20068;-45
2022/05/29 02:59:03;;;;;;;1.58;1.48;;;18.20;1.30;;;;;;5011221;28;20022;-43
2022/05/29 03:02:10;;;;;;;1.90;1.33;;;18.20;1.10;;;;;;5012843;28;20026;-44
2022/05/29 03:04:40;;;;;;;1.30;1.20;;;18.50;1.20;;;;;;4997963;28;20506;-42
2022/05/29 03:07:15;;;;;;;1.45;1.30;;;18.50;1.00;;;;;;5012409;28;20084;-45
2022/05/29 03:10:09;;;;;;;1.70;1.42;;;18.40;1.00;;;;;;5012196;28;20032;-43
2022/05/29 03:12:56;;;;;;;1.73;1.50;;;18.40;1.00;;;;;;5006010;28;20491;-43
2022/05/29 03:15:22;;;;;;;2.72;1.55;;;18.30;1.00;;;;;;5002579;28;20105;-45
2022/05/29 03:18:18;;;;;;;2.10;1.25;;;18.10;1.00;;;;;;5011846;28;20467;-42
2022/05/29 03:21:10;;;;;;;1.88;1.70;;;18.30;1.00;;;;;;5012295;28;20057;-42
2022/05/29 03:23:52;;;;;;;1.55;1.42;;;18.20;1.00;;;;;;5006276;28;20037;-42
2022/05/29 03:26:42;;;;;;;3.08;1.52;;;18.20;1.00;;;;;;5010091;28;20646;-44
2022/05/29 03:29:19;;;;;;;1.77;1.55;;;18.20;1.00;;;;;;5012240;28;20028;-43
2022/05/29 03:31:45;;;;;;;2.35;1.33;;;18.20;1.00;;;;;;5001970;28;20018;-47
2022/05/29 03:34:13;;;;;;;1.42;1.10;;;18.20;1.00;;;;;;5011119;28;20040;-45
2022/05/29 03:36:50;;;;;;;2.85;1.70;;;18.40;1.00;;;;;;5012873;28;20069;-44
2022/05/29 03:39:17;;;;;;;1.60;1.50;;;18.50;1.00;;;;;;5010341;28;20022;-45
2022/05/29 03:41:48;;;;;;;1.98;1.63;;;18.40;1.00;;;;;;5012874;28;20022;-43
2022/05/29 03:44:16;;;;;;;3.72;1.38;;;18.30;1.00;;;;;;5016308;28;20333;-45
2022/05/29 03:46:44;;;;;;;1.50;1.40;;;18.40;1.00;;;;;;5003299;28;20061;-44
2022/05/29 03:49:15;;;;;;;1.50;1.40;;;18.50;1.00;;;;;;5017195;28;20415;-44
2022/05/29 03:51:41;;;;;;;1.95;1.25;;;18.50;1.00;;;;;;4998001;28;20384;-47
2022/05/29 03:54:07;;;;;;;1.85;1.55;;;18.30;1.00;;;;;;5009226;28;20057;-43
2022/05/29 03:56:34;;;;;;;1.58;1.33;;;18.30;1.00;;;;;;5015274;28;20029;-45
2022/05/29 03:58:59;;;;;;;2.95;1.77;;;18.40;1.00;;;;;;5016616;28;20026;-46
2022/05/29 04:01:25;;;;;;;2.25;1.63;;;18.30;1.00;;;;;;5013811;28;20024;-43
2022/05/29 04:03:54;;;;;;;2.22;1.73;;;18.20;1.00;;;;;;5016503;28;20033;-45
2022/05/29 04:06:25;;;;;;;1.67;1.58;;;18.20;1.00;;;;;;5014674;28;20034;-45
2022/05/29 04:14:22;;;;;;;2.03;1.52;;;18.30;1.00;;;;;;5002993;28;20124;-43
2022/05/29 04:16:49;;;;;;;3.90;2.35;;;18.20;1.00;;;;;;5009582;28;20527;-42
2022/05/29 04:19:14;;;;;;;2.08;1.55;;;18.40;1.00;;;;;;5015749;28;20037;-44
2022/05/29 04:21:40;;;;;;;3.08;2.20;;;18.30;1.00;;;;;;5010784;28;20019;-44
2022/05/29 04:24:07;;;;;;;3.63;2.17;;;18.20;1.00;;;;;;5013214;28;20045;-45
2022/05/29 04:26:34;;;;;;;2.60;2.33;;;18.30;1.00;;;;;;5015184;28;20034;-47
2022/05/29 04:29:01;;;;;;;3.92;1.90;;;18.40;1.00;;;;;;5013275;28;20038;-46
2022/05/29 04:31:27;;;;;;;4.18;2.22;;;18.40;1.00;;;;;;5015220;28;20534;-43
2022/05/29 04:33:53;;;;;;;1.75;1.65;;;18.30;1.00;;;;;;5016259;28;20039;-44
2022/05/29 04:36:19;;;;;;;4.15;1.88;;;18.30;1.00;;;;;;5013876;28;20426;-42
2022/05/29 04:38:44;;;;;;;3.83;1.70;;;18.20;1.00;;;;;;5011918;28;20400;-42
2022/05/29 04:41:10;;;;;;;3.08;2.05;;;18.40;1.00;;;;;;5014579;28;20036;-42
2022/05/29 04:43:37;;;;;;;1.95;1.83;;;18.40;1.00;;;;;;5014465;28;20042;-43
2022/05/29 04:46:03;;;;;;;2.60;1.90;;;18.30;1.00;;;;;;5014700;28;20076;-44
2022/05/29 04:48:29;;;;;;;2.72;2.03;;;18.40;1.00;;;;;;5014775;28;20038;-42
2022/05/29 04:50:58;;;;;;;2.60;2.08;;;18.50;1.00;;;;;;5015009;28;20402;-43
2022/05/29 04:53:24;;;;;;;4.35;1.63;;;18.20;1.00;;;;;;5002023;28;20018;-47
2022/05/29 04:55:53;;;;;;;1.85;1.65;;;18.20;1.00;;;;;;5002933;28;20041;-45
2022/05/29 04:58:18;;;;;;;2.90;2.00;;;18.20;1.00;;;;;;5008596;28;20101;-46
2022/05/29 05:00:45;;;;;;;4.03;1.85;;;18.30;1.00;;;;;;5009740;28;20113;-45
2022/05/29 05:03:10;;;;;;;2.50;1.80;;;18.50;1.00;;;;;;5012371;28;20061;-43
2022/05/29 05:05:36;;;;;;;2.15;1.95;;;18.30;1.00;;;;;;5013181;28;20502;-42
2022/05/29 05:08:03;;;;;;;2.47;1.55;;;18.30;1.00;;;;;;4993342;28;20033;-42
2022/05/29 05:10:28;;;;;;;2.25;1.80;;;18.30;1.00;;;;;;5013802;28;20499;-42
2022/05/29 05:12:54;;;;;;;2.45;1.85;;;18.40;1.00;;;;;;5015447;28;20160;-47
2022/05/29 05:15:21;;;;;;;2.15;1.73;;;18.40;1.00;;;;;;5013494;28;20026;-47
2022/05/29 05:17:46;;;;;;;5.15;2.10;;;18.40;1.00;;;;;;5015284;28;20026;-42
2022/05/29 05:20:13;;;;;;;1.80;1.70;;;18.30;1.00;;;;;;5014056;28;20503;-45
2022/05/29 05:22:38;;;;;;;2.95;1.90;;;18.40;1.00;;;;;;5015360;28;20033;-45
2022/05/29 05:25:05;;;;;;;1.95;1.42;;;18.60;1.00;;;;;;5013814;28;20072;-43
2022/05/29 05:27:30;;;;;;;2.08;1.80;;;18.60;1.00;;;;;;5012666;28;20056;-42
2022/05/29 05:29:56;;;;;;;2.00;1.80;;;18.50;1.00;;;;;;5009780;28;20149;-42
2022/05/29 05:32:22;;;;;;;2.78;1.80;;;18.50;1.00;;;;;;5014934;28;20030;-42
2022/05/29 05:34:47;;;;;;;1.60;1.50;;;18.50;1.00;;;;;;5013886;28;20037;-42
2022/05/29 05:37:14;;;;;;;4.85;2.03;;;18.50;1.00;;;;;;5009028;28;20081;-41
2022/05/29 05:39:39;;;;;;;3.47;1.83;;;18.40;1.00;;;;;;5012225;28;20026;-41
2022/05/29 05:42:06;;;;;;;2.53;1.73;;;18.40;1.00;;;;;;4996935;28;20147;-41
2022/05/29 05:44:32;;;;;;;3.03;1.65;;;18.40;1.00;;;;;;5010068;28;20049;-41
2022/05/29 05:46:58;;;;;;;1.77;1.60;;;18.50;1.00;;;;;;4995967;28;20031;-40
2022/05/29 05:49:24;;;;;;;1.75;1.65;;;18.40;1.00;;;;;;5007942;28;20069;-42
2022/05/29 05:51:50;;;;;;;2.42;1.63;;;18.30;1.00;;;;;;5013594;28;20034;-41
2022/05/29 05:54:17;;;;;;;2.17;1.60;;;18.30;1.00;;;;;;5013830;28;20041;-41
2022/05/29 05:56:51;;;;;;;1.98;1.50;;;18.40;1.00;;;;;;5001733;28;20084;-43
2022/05/29 05:59:17;;;;;;;1.85;1.75;;;18.40;1.00;;;;;;5014468;28;20109;-42
2022/05/29 06:01:43;;;;;;;1.67;1.10;;;18.30;1.00;;;;;;4999533;28;20073;-47
2022/05/29 06:04:08;;;;;;;1.65;1.27;;;18.40;1.00;;;;;;5013606;28;20080;-43
2022/05/29 06:06:34;;;;;;;1.75;1.42;;;18.40;1.00;;;;;;5013386;28;20482;-43
2022/05/29 06:09:00;;;;;;;5.13;1.75;;;18.40;1.00;;;;;;5013024;28;20053;-45
2022/05/29 06:11:28;;;;;;;1.75;1.60;;;18.50;1.00;;;;;;5004426;28;20049;-48
2022/05/29 06:13:54;;;;;;;2.65;1.70;;;18.50;1.00;;;;;;5011728;28;20025;-49
2022/05/29 06:16:20;;;;;;;3.03;1.70;;;18.30;1.00;;;;;;5009034;28;20033;-42
2022/05/29 06:18:46;;;;;;;3.17;1.85;;;18.30;1.00;;;;;;5013517;28;20176;-43
2022/05/29 06:21:11;;;;;;;2.22;1.85;;;18.40;1.00;;;;;;5008794;28;20105;-43
2022/05/29 06:23:38;;;;;;;2.55;1.65;;;18.40;1.00;;;;;;5012950;28;20547;-41
2022/05/29 06:26:11;;;;;;;1.70;1.58;;;18.40;1.00;;;;;;5008533;28;20041;-41
2022/05/29 06:28:36;;;;;;;4.22;2.30;;;18.60;1.00;;;;;;5013727;28;20029;-41
2022/05/29 06:31:06;;;;;;;2.58;1.58;;;18.50;1.00;;;;;;5011894;28;20503;-41
2022/05/29 06:33:32;;;;;;;2.55;2.05;;;18.50;1.00;;;;;;5012455;28;20416;-41
2022/05/29 06:36:07;;;;;;;1.55;1.45;;;18.50;1.00;;;;;;5007006;28;20030;-42
2022/05/29 06:38:32;;;;;;;8.35;2.13;;;18.50;1.00;;;;;;5012834;28;20034;-42
2022/05/29 06:40:59;;;;;;;4.47;1.73;;;18.60;1.00;;;;;;5006277;28;20036;-42
2022/05/29 06:43:24;;;;;;;2.58;1.83;;;18.70;1.00;;;;;;5012799;28;20030;-41
2022/05/29 06:45:59;;;;;;;1.60;1.50;;;18.60;1.00;;;;;;5010901;28;20080;-42
2022/05/29 06:48:25;;;;;;;3.42;1.75;;;18.50;1.00;;;;;;5011527;28;20084;-42
2022/05/29 06:50:50;;;;;;;3.13;1.98;;;18.70;1.00;;;;;;5011882;28;20022;-41
2022/05/29 06:53:16;;;;;;;1.55;1.40;;;18.60;1.00;;;;;;4995235;28;20025;-42
2022/05/29 06:55:53;;;;;;;2.78;1.70;;;18.80;1.00;;;;;;5003208;28;20121;-45
2022/05/29 06:58:19;;;;;;;2.90;1.70;;;18.80;1.00;;;;;;5011870;28;20109;-41
2022/05/29 07:08:57;;;;;;;2.78;2.00;;;18.70;1.00;;;;;;5002264;28;20076;-41
2022/05/29 07:11:27;;;;;;;1.75;1.58;;;18.80;1.00;;;;;;4953468;28;1673476;-41
2022/05/29 07:13:54;;;;;;;3.38;2.03;;;18.80;1.00;;;;;;5006977;28;20026;-42
2022/05/29 07:16:20;;;;;;;3.00;2.03;;;18.80;1.00;;;;;;5012190;28;20026;-42
2022/05/29 07:18:50;;;;;;;2.67;1.83;;;18.80;1.00;;;;;;4999943;28;20121;-43
2022/05/29 07:21:16;;;;;;;2.08;1.88;;;18.70;1.00;;;;;;5006521;28;20088;-43
2022/05/29 07:23:41;;;;;;;2.10;1.90;;;18.90;1.00;;;;;;5000941;28;20117;-42
2022/05/29 07:26:07;;;;;;;4.60;1.65;;;18.90;1.00;;;;;;5012352;28;20041;-42
2022/05/29 07:28:32;;;;;;;2.72;1.75;;;18.90;1.00;;;;;;5012523;28;20030;-45
2022/05/29 07:30:58;;;;;;;3.45;2.13;;;18.70;1.00;;;;;;5009558;28;20036;-43
2022/05/29 07:33:25;;;;;;;3.50;1.73;;;18.60;1.00;;;;;;5008641;28;20481;-44
2022/05/29 07:35:51;;;;;;;2.53;1.80;;;18.80;1.00;;;;;;5000866;28;20498;-42
2022/05/29 07:38:16;;;;;;;5.45;1.63;;;19.00;1.00;;;;;;5011580;28;20419;-42
2022/05/29 07:40:42;;;;;;;2.42;1.73;;;19.00;1.00;;;;;;5010340;28;20076;-45
2022/05/29 07:43:20;;;;;;;4.88;1.80;;;19.10;1.00;;;;;;5012950;28;20110;-47
2022/05/29 07:45:57;;;;;;;2.17;1.70;;;19.10;1.00;;;;;;5003150;28;20121;-42
2022/05/29 07:48:26;;;;;;;3.60;2.13;;;19.30;1.00;;;;;;5000678;28;20472;-41
2022/05/29 07:50:53;;;;;;;2.55;2.00;;;19.30;1.00;;;;;;5011476;28;20475;-42
2022/05/29 07:53:19;;;;;;;2.58;1.70;;;19.30;1.00;;;;;;5012660;28;20052;-41
2022/05/29 07:55:45;;;;;;;2.25;1.80;;;19.20;1.00;;;;;;5003401;28;20026;-41
2022/05/29 07:58:12;;;;;;;6.43;2.13;;;19.10;1.00;;;;;;5000085;28;20097;-44
2022/05/29 08:00:39;;;;;;;4.18;2.28;;;19.30;1.00;;;;;;5009864;28;20038;-41
2022/05/29 08:03:05;;;;;;;4.57;2.45;;;19.30;1.00;;;;;;5012625;28;20022;-43
2022/05/29 08:05:34;;;;;;;2.58;1.80;;;19.30;1.00;;;;;;5007956;28;20030;-42
2022/05/29 08:08:03;;;;;;;3.55;1.77;;;19.30;1.00;;;;;;5004294;28;20023;-45
2022/05/29 08:10:30;;;;;;;2.25;1.77;;;19.40;1.00;;;;;;5011412;28;20018;-41
2022/05/29 08:12:56;;;;;;;2.45;1.50;;;19.20;1.00;;;;;;5011183;28;20061;-42
2022/05/29 08:15:21;;;;;;;3.88;1.90;;;19.20;1.00;;;;;;5024396;28;20464;-41
2022/05/29 08:17:47;;;;;;;2.28;2.08;;;19.20;1.00;;;;;;5011166;28;20107;-41
2022/05/29 08:20:15;;;;;;;1.50;1.40;;;19.20;1.00;;;;;;5012458;28;20022;-42
2022/05/29 08:22:41;;;;;;;6.05;1.80;;;19.20;1.00;;;;;;5011474;28;20075;-42
2022/05/29 08:30:43;;;;;;;2.08;1.90;;;19.30;1.00;;;;;;5015022;28;20557;-41
2022/05/29 08:33:12;;;;;;;2.42;1.92;;;19.20;1.00;;;;;;5009908;28;20034;-42
2022/05/29 08:35:40;;;;;;;2.90;2.05;;;19.30;1.00;;;;;;5013402;28;20026;-42
2022/05/29 08:38:08;;;;;;;2.22;1.95;;;19.50;1.00;;;;;;5015897;28;20049;-42
2022/05/29 08:40:40;;;;;;;1.90;1.70;;;19.60;1.00;;;;;;5006843;28;20019;-44
2022/05/29 08:43:11;;;;;;;3.00;1.70;;;19.70;1.00;;;;;;5002131;28;20062;-50
2022/05/29 08:46:30;;;;;;;2.83;2.60;;;19.80;1.00;;;;;;5016002;28;20030;-47
2022/05/29 08:48:56;;;;;;;1.90;1.80;;;19.70;1.00;;;;;;5010278;28;20026;-42
2022/05/29 08:51:41;;;;;;;4.38;1.80;;;19.80;1.00;;;;;;5013349;28;20014;-43
2022/05/29 08:54:33;;;;;;;3.13;2.20;;;19.90;1.00;;;;;;5005175;28;20557;-47
2022/05/29 08:57:01;;;;;;;2.40;2.17;;;19.80;1.00;;;;;;5003183;28;20034;-45
2022/05/29 08:59:44;;;;;;;3.08;2.30;;;19.80;1.00;;;;;;5014965;28;20448;-46
2022/05/29 09:02:20;;;;;;;4.47;2.63;;;19.80;1.00;;;;;;5014852;28;20030;-47
2022/05/29 09:04:59;;;;;;;4.82;2.38;;;19.90;1.00;;;;;;5015040;28;20048;-45
2022/05/29 09:07:28;;;;;;;2.00;1.80;;;20.00;1.00;;;;;;5013262;28;20034;-42
2022/05/29 09:09:59;;;;;;;2.40;2.17;;;20.00;1.00;;;;;;5008672;28;20448;-42
2022/05/29 09:12:31;;;;;;;3.85;3.00;;;20.10;1.00;;;;;;5014184;28;20041;-42
2022/05/29 09:15:28;;;;;;;2.80;2.60;;;20.10;1.00;;;;;;5015136;28;20543;-44
2022/05/29 09:17:59;;;;;;;4.45;2.33;;;20.00;1.00;;;;;;4983112;28;20042;-43
2022/05/29 09:20:28;;;;;;;4.25;2.38;;;19.90;1.00;;;;;;5004195;28;20121;-44
2022/05/29 09:22:59;;;;;;;3.10;2.20;;;20.10;1.00;;;;;;5014136;28;20128;-46
2022/05/29 09:25:32;;;;;;;2.38;2.17;;;20.30;1.00;;;;;;5014687;28;20117;-41
2022/05/29 09:28:25;;;;;;;3.00;1.90;;;20.30;1.00;;;;;;5013738;28;20033;-45
2022/05/29 09:31:09;;;;;;;3.67;2.90;;;20.30;1.00;;;;;;5002643;28;20357;-41
2022/05/29 09:33:36;;;;;;;2.30;2.10;;;20.30;1.00;;;;;;5008746;28;20477;-44
2022/05/29 09:36:17;;;;;;;2.50;2.17;;;20.30;1.00;;;;;;5000678;28;20037;-45
2022/05/29 09:39:05;;;;;;;4.82;3.15;;;20.30;1.00;;;;;;5012379;28;20038;-44
2022/05/29 09:41:43;;;;;;;3.60;2.47;;;20.30;1.00;;;;;;5014565;28;20026;-44
2022/05/29 09:50:59;;;;;;;3.63;2.05;;;20.50;1.00;;;;;;5001833;28;20137;-42
2022/05/29 09:53:32;;;;;;;2.38;2.17;;;20.70;1.00;;;;;;5009575;28;20086;-42
2022/05/29 09:56:02;;;;;;;2.33;2.13;;;20.90;1.00;;;;;;5004395;28;20504;-43
2022/05/29 09:58:44;;;;;;;3.00;2.00;;;20.80;1.00;;;;;;5013900;28;20021;-42
2022/05/29 10:01:10;;;;;;;2.65;2.20;;;20.90;1.00;;;;;;5013056;28;20042;-46
2022/05/29 10:03:44;;;;;;;2.33;2.13;;;20.90;1.00;;;;;;5010986;28;20117;-43
2022/05/29 10:06:35;;;;;;;3.83;2.58;;;20.90;1.00;;;;;;5012403;28;20037;-44
2022/05/29 10:09:16;;;;;;;2.17;2.08;;;21.00;1.00;;;;;;5013322;28;20030;-41
2022/05/29 10:11:48;;;;;;;5.07;2.90;;;21.20;1.00;;;;;;5012470;28;20085;-42
2022/05/29 10:14:20;;;;;;;3.67;2.35;;;21.30;1.00;;;;;;5002258;28;20038;-45
2022/05/29 10:16:47;;;;;;;2.53;2.30;;;21.50;1.00;;;;;;5011828;28;20042;-45
2022/05/29 10:19:29;;;;;;;3.55;2.47;;;21.40;1.00;;;;;;5012448;28;20519;-47
2022/05/29 10:21:56;;;;;;;2.45;2.20;;;21.60;1.00;;;;;;5005861;28;20472;-45
2022/05/29 10:24:26;;;;;;;4.50;2.20;;;21.70;1.00;;;;;;4995554;28;20117;-46
2022/05/29 10:26:57;;;;;;;3.55;2.08;;;21.80;1.00;;;;;;4999389;28;20031;-45
2022/05/29 10:29:32;;;;;;;5.13;3.38;;;21.90;1.00;;;;;;4999376;28;20109;-46
2022/05/29 10:32:01;;;;;;;2.90;2.63;;;22.00;1.00;;;;;;5008015;28;20032;-46
2022/05/29 10:34:32;;;;;;;3.25;2.97;;;22.00;1.00;;;;;;5013249;28;20033;-44
2022/05/29 10:36:59;;;;;;;2.72;2.53;;;21.90;1.00;;;;;;5007814;28;20022;-43
2022/05/29 10:39:31;;;;;;;7.28;3.53;;;22.00;1.00;;;;;;5013621;28;20108;-45
2022/05/29 10:41:58;;;;;;;3.00;2.70;;;22.10;1.00;;;;;;5012595;28;20022;-42
2022/05/29 10:44:41;;;;;;;2.95;2.30;;;22.10;1.00;;;;;;5006549;28;20039;-44
2022/05/29 10:47:33;;;;;;;3.50;3.20;;;22.10;1.00;;;;;;5011240;28;20396;-45
2022/05/29 10:50:34;;;;;;;3.50;3.17;;;22.20;1.00;;;;;;5012258;28;20036;-42
2022/05/29 10:53:20;;;;;;;4.28;3.78;;;22.10;1.00;;;;;;5009543;28;20034;-45
2022/05/29 10:55:58;;;;;;;3.53;2.85;;;22.10;1.00;;;;;;5011522;28;20033;-43
2022/05/29 10:58:47;;;;;;;5.15;2.97;;;22.30;1.00;;;;;;5008482;28;20026;-46
2022/05/29 11:04:46;;;;;;;3.60;2.47;;;22.70;1.00;;;;;;5002845;28;20053;-43
2022/05/29 11:07:14;;;;;;;2.97;2.60;;;22.70;1.00;;;;;;5010226;28;20030;-44
2022/05/29 11:10:11;;;;;;;5.05;3.25;;;22.70;1.00;;;;;;5013045;28;20058;-44
2022/05/29 11:12:43;;;;;;;3.75;2.75;;;22.60;1.00;;;;;;5011267;28;20050;-47
2022/05/29 11:15:50;;;;;;;3.42;3.08;;;22.60;1.00;;;;;;5002575;28;20026;-47
2022/05/29 11:18:30;;;;;;;4.20;3.15;;;22.80;1.00;;;;;;4991303;28;20330;-42
2022/05/29 11:20:59;;;;;;;3.40;3.10;;;22.80;1.00;;;;;;5011712;28;20100;-47
2022/05/29 11:23:31;;;;;;;5.47;3.28;;;22.70;1.00;;;;;;5012873;28;20080;-41
2022/05/29 11:26:08;;;;;;;4.68;3.53;;;22.60;1.00;;;;;;4996911;28;20045;-44
2022/05/29 11:28:52;;;;;;;4.82;4.35;;;22.80;1.00;;;;;;5002405;28;20049;-41
2022/05/29 11:31:40;;;;;;;4.93;3.03;;;22.80;1.00;;;;;;5011728;28;20030;-42
2022/05/29 11:34:14;;;;;;;4.10;2.83;;;22.80;1.00;;;;;;5003894;28;20041;-45
2022/05/29 11:37:17;;;;;;;5.35;2.80;;;23.20;1.00;;;;;;5003181;28;20081;-42
2022/05/29 11:39:48;;;;;;;3.45;2.83;;;24.50;1.00;;;;;;5010746;28;20076;-43
2022/05/29 11:42:26;;;;;;;3.38;3.05;;;25.70;1.00;;;;;;5006793;28;20021;-42
2022/05/29 11:45:05;;;;;;;3.28;2.95;;;25.10;1.00;;;;;;5012799;28;20089;-43
2022/05/29 11:53:40;;;;;;;3.33;2.28;;;24.90;1.00;;;;;;5006125;28;20040;-44
2022/05/29 11:56:12;;;;;;;3.00;2.80;;;24.60;1.00;;;;;;5007331;28;20392;-44
2022/05/29 11:58:48;;;;;;;4.18;2.20;;;24.60;1.00;;;;;;5012578;28;20480;-45
2022/05/29 12:01:23;;;;;;;3.28;2.40;;;25.10;1.00;;;;;;4998560;28;20034;-43
2022/05/29 12:03:57;;;;;;;2.30;2.10;;;24.80;1.00;;;;;;5009589;28;20190;-43
2022/05/29 12:06:31;;;;;;;3.13;2.17;;;24.40;1.00;;;;;;5002072;28;20068;-45
2022/05/29 12:09:03;;;;;;;3.13;2.90;;;24.30;1.00;;;;;;5016509;28;20033;-43
2022/05/29 12:11:41;;;;;;;2.78;2.20;;;24.00;1.00;;;;;;5015249;28;20046;-44
2022/05/29 12:14:21;;;;;;;2.45;2.25;;;23.90;1.00;;;;;;5003618;28;20050;-45
2022/05/29 12:16:50;;;;;;;3.03;2.40;;;23.90;1.00;;;;;;5005060;28;20018;-44
2022/05/29 12:19:19;;;;;;;5.60;4.05;;;24.00;1.00;;;;;;5003903;28;20113;-44
2022/05/29 12:22:02;;;;;;;3.72;2.50;;;23.90;1.00;;;;;;5012358;28;20085;-43
2022/05/29 12:24:32;;;;;;;3.42;2.70;;;24.10;1.00;;;;;;5010600;28;20096;-43
2022/05/29 12:27:19;;;;;;;3.38;2.50;;;24.60;1.00;;;;;;5004891;28;20487;-43
2022/05/29 12:30:07;;;;;;;3.83;2.40;;;24.90;1.00;;;;;;5015680;28;20022;-45
2022/05/29 12:32:35;;;;;;;2.60;2.40;;;24.90;1.00;;;;;;5005429;28;20041;-42
2022/05/29 12:35:17;;;;;;;7.57;3.22;;;24.30;1.00;;;;;;5015419;28;20049;-54
2022/05/29 12:37:58;;;;;;;3.13;2.80;;;23.80;1.00;;;;;;5014845;28;20030;-46
2022/05/29 12:40:49;;;;;;;4.88;3.10;;;23.80;1.00;;;;;;5015483;28;20173;-46
2022/05/29 12:43:21;;;;;;;2.70;2.47;;;23.80;1.00;;;;;;5014789;28;20025;-46
2022/05/29 12:45:55;;;;;;;4.13;2.60;;;23.80;1.00;;;;;;5015753;28;20037;-45
2022/05/29 12:48:36;;;;;;;3.30;2.63;;;23.70;1.00;;;;;;5012880;28;20037;-49
2022/05/29 12:51:01;;;;;;;5.22;4.38;;;23.90;1.00;;;;;;5012939;28;20358;-48
2022/05/29 12:53:51;;;;;;;3.67;3.15;;;23.90;1.00;;;;;;5015699;28;20160;-45
2022/05/29 12:56:39;;;;;;;3.38;2.72;;;24.00;1.00;;;;;;5003209;28;20030;-41
2022/05/29 12:59:13;;;;;;;3.58;2.30;;;26.10;1.00;;;;;;5015377;28;20033;-41
2022/05/29 13:02:00;;;;;;;3.55;2.65;;;30.90;1.00;;;;;;5014757;28;20218;-41
2022/05/29 13:04:41;;;;;;;2.50;2.40;;;32.70;1.00;;;;;;5015605;28;20131;-41
2022/05/29 13:07:12;;;;;;;4.07;2.85;;;32.20;1.00;;;;;;5005294;28;20047;-40
2022/05/29 13:09:54;;;;;;;3.25;3.03;;;31.30;1.00;;;;;;5009974;28;20198;-42
2022/05/29 13:12:27;;;;;;;4.10;3.13;;;30.00;1.00;;;;;;4996561;28;20039;-42
2022/05/29 13:15:02;;;;;;;3.35;3.13;;;29.70;1.00;;;;;;5009155;28;20030;-43
2022/05/29 13:17:31;;;;;;;2.75;2.47;;;29.60;1.00;;;;;;5013337;28;20021;-47
2022/05/29 13:19:57;;;;;;;3.60;3.30;;;30.00;1.00;;;;;;5005728;28;20029;-47
2022/05/29 13:22:49;;;;;;;3.65;3.03;;;28.80;1.00;;;;;;5013182;28;20057;-40
2022/05/29 13:25:17;;;;;;;3.20;3.00;;;29.50;1.00;;;;;;5001627;28;20101;-42
2022/05/29 13:27:42;;;;;;;4.18;3.33;;;29.30;1.00;;;;;;5013819;28;20586;-43
2022/05/29 13:30:34;;;;;;;3.35;3.03;;;29.20;1.00;;;;;;5012491;28;20136;-45
2022/05/29 13:33:24;;;;;;;3.72;2.90;;;29.20;1.00;;;;;;5006946;28;20034;-48
2022/05/29 13:35:50;;;;;;;3.50;3.20;;;29.70;1.00;;;;;;5008334;28;20559;-41
2022/05/29 13:38:43;;;;;;;3.30;3.10;;;29.60;1.00;;;;;;5012205;28;20116;-41
2022/05/29 13:41:25;;;;;;;3.65;3.35;;;28.40;1.00;;;;;;5012461;28;20030;-40
2022/05/29 13:43:50;;;;;;;4.05;3.40;;;27.60;1.00;;;;;;5004452;28;20035;-49
2022/05/29 13:46:20;;;;;;;4.50;4.10;;;27.10;1.00;;;;;;5006855;28;20048;-43
2022/05/29 13:49:22;;;;;;;4.43;4.13;;;26.60;1.00;;;;;;5005947;28;20472;-48
2022/05/29 13:51:50;;;;;;;4.47;3.60;;;26.60;1.00;;;;;;5004604;28;20080;-49
2022/05/29 13:54:44;;;;;;;4.00;3.60;;;27.70;1.00;;;;;;5013506;28;20029;-43
2022/05/29 14:10:58;;;;;;;4.78;4.25;;;28.80;1.00;;;;;;5003606;28;20034;-44
2022/05/29 14:13:31;;;;;;;5.28;3.42;;;29.70;1.00;;;;;;4971605;28;20062;-41
2022/05/29 14:16:09;;;;;;;3.95;3.40;;;28.80;1.00;;;;;;4962071;28;20034;-41